Time;durP1;ratioP1;P1;durP2;ratioP2;P2;SDS_P1;SDS_P2;PMS_P1;PMS_P2;Temp;Humidity;BMP_temperature;BMP_pressure;BME280_temperature;BME280_humidity;BME280_pressure;Samples;Min_cycle;Max_cycle;Signal;HPM_P1;HPM_P2
2022/09/25 00:00:05;;;;;;;;;5.50;5.50;;;;;;;;5058938;28;45232;-71
2022/09/25 00:02:31;;;;;;;;;7.25;7.25;;;;;;;;5077512;28;45539;-71
2022/09/25 00:04:56;;;;;;;;;7.25;7.25;;;;;;;;5077055;28;46213;-70
2022/09/25 00:07:21;;;;;;;;;8.75;8.75;;;;;;;;5058876;28;45256;-70
2022/09/25 00:09:46;;;;;;;;;14.50;14.50;;;;;;;;5077009;28;45222;-70
2022/09/25 00:12:11;;;;;;;;;9.50;9.00;;;;;;;;5077090;28;45309;-71
2022/09/25 00:14:37;;;;;;;;;9.50;9.50;;;;;;;;5076781;28;45442;-71
2022/09/25 00:17:02;;;;;;;;;9.00;7.50;;;;;;;;5076891;28;45303;-70
2022/09/25 00:22:11;;;;;;;;;6.25;6.25;;;;;;;;5077045;28;45442;-70
2022/09/25 00:24:36;;;;;;;;;9.00;9.00;;;;;;;;5076816;28;45444;-69
2022/09/25 00:27:01;;;;;;;;;9.25;9.25;;;;;;;;5058648;28;45209;-70
2022/09/25 00:29:26;;;;;;;;;9.00;9.00;;;;;;;;5076786;28;45249;-71
2022/09/25 00:31:53;;;;;;;;;6.25;6.25;;;;;;;;5077347;28;45710;-69
2022/09/25 00:34:18;;;;;;;;;5.00;5.00;;;;;;;;5076494;28;46618;-70
2022/09/25 00:36:43;;;;;;;;;7.00;7.00;;;;;;;;5076600;28;45271;-70
2022/09/25 00:39:09;;;;;;;;;7.75;7.75;;;;;;;;5075709;28;45422;-70
2022/09/25 00:41:34;;;;;;;;;7.00;7.00;;;;;;;;5066960;28;45637;-69
2022/09/25 00:44:00;;;;;;;;;5.75;5.75;;;;;;;;5055734;28;45345;-69
2022/09/25 00:46:36;;;;;;;;;8.75;8.75;;;;;;;;5067587;28;45432;-70
2022/09/25 00:49:04;;;;;;;;;9.00;9.00;;;;;;;;5076242;28;45446;-71
2022/09/25 00:51:41;;;;;;;;;8.00;8.00;;;;;;;;5058062;28;45415;-69
2022/09/25 00:54:14;;;;;;;;;7.75;7.75;;;;;;;;5076859;28;45460;-70
2022/09/25 00:56:41;;;;;;;;;6.75;6.75;;;;;;;;5076147;28;45242;-70
2022/09/25 00:59:08;;;;;;;;;7.25;7.25;;;;;;;;5059653;28;45401;-70
2022/09/25 01:01:34;;;;;;;;;7.00;7.00;;;;;;;;5055790;28;45323;-69
2022/09/25 01:03:59;;;;;;;;;8.25;8.25;;;;;;;;5055666;28;45540;-69
2022/09/25 01:06:25;;;;;;;;;6.00;6.00;;;;;;;;5056064;28;45325;-69
2022/09/25 01:08:50;;;;;;;;;6.75;6.75;;;;;;;;5056361;28;45339;-70
2022/09/25 01:11:16;;;;;;;;;6.00;6.00;;;;;;;;5056124;28;45296;-70
2022/09/25 01:13:41;;;;;;;;;7.00;7.00;;;;;;;;5056083;28;45462;-71
2022/09/25 01:16:16;;;;;;;;;9.00;9.00;;;;;;;;5056026;28;45355;-71
2022/09/25 01:18:48;;;;;;;;;7.50;7.50;;;;;;;;5055509;28;45466;-69
2022/09/25 01:21:32;;;;;;;;;7.25;7.25;;;;;;;;5055230;28;45549;-71
2022/09/25 01:24:16;;;;;;;;;6.25;6.25;;;;;;;;5055858;28;45307;-69
2022/09/25 01:26:50;;;;;;;;;6.25;6.25;;;;;;;;5055867;28;45267;-69
2022/09/25 01:29:24;;;;;;;;;8.25;8.25;;;;;;;;5055763;28;45370;-70
2022/09/25 01:31:52;;;;;;;;;0.75;0.75;;;;;;;;5056444;28;45408;-69
2022/09/25 01:34:24;;;;;;;;;9.50;9.50;;;;;;;;5055316;28;46737;-70
2022/09/25 01:36:54;;;;;;;;;7.75;7.75;;;;;;;;5054623;28;45544;-69
2022/09/25 01:39:21;;;;;;;;;7.00;7.00;;;;;;;;5055954;28;45344;-71
2022/09/25 01:41:57;;;;;;;;;6.25;6.25;;;;;;;;5055793;28;45347;-70
2022/09/25 01:44:35;;;;;;;;;6.50;6.50;;;;;;;;5055443;28;46232;-70
2022/09/25 01:47:08;;;;;;;;;8.25;7.75;;;;;;;;5055509;28;45303;-70
2022/09/25 01:49:40;;;;;;;;;7.25;7.25;;;;;;;;5055427;28;45231;-69
2022/09/25 01:52:09;;;;;;;;;8.50;8.50;;;;;;;;5037276;28;45531;-70
2022/09/25 01:54:38;;;;;;;;;7.50;7.50;;;;;;;;5036903;28;47107;-68
2022/09/25 01:57:08;;;;;;;;;7.25;7.25;;;;;;;;5054781;28;45393;-70
2022/09/25 01:59:36;;;;;;;;;6.25;6.25;;;;;;;;5054792;28;45129;-68
2022/09/25 02:02:03;;;;;;;;;6.00;6.00;;;;;;;;5055463;28;45312;-69
2022/09/25 02:04:35;;;;;;;;;9.00;9.00;;;;;;;;5055016;28;46872;-69
2022/09/25 02:07:02;;;;;;;;;6.25;6.25;;;;;;;;5055174;28;45292;-69
2022/09/25 02:09:42;;;;;;;;;7.75;7.75;;;;;;;;5055224;28;45354;-71
2022/09/25 02:12:13;;;;;;;;;11.25;9.75;;;;;;;;5054881;28;45266;-71
2022/09/25 02:14:45;;;;;;;;;8.00;8.00;;;;;;;;5036469;28;46677;-70
2022/09/25 02:17:12;;;;;;;;;8.00;8.00;;;;;;;;5055196;28;45289;-69
2022/09/25 02:22:25;;;;;;;;;5.50;5.50;;;;;;;;5054969;28;45408;-70
2022/09/25 02:24:53;;;;;;;;;7.75;7.75;;;;;;;;5054709;28;46576;-69
2022/09/25 02:27:19;;;;;;;;;8.50;8.50;;;;;;;;5054504;28;45284;-70
2022/09/25 02:29:44;;;;;;;;;8.25;8.25;;;;;;;;5054734;28;45289;-70
2022/09/25 02:32:13;;;;;;;;;7.25;7.25;;;;;;;;5054997;28;45201;-71
2022/09/25 02:34:39;;;;;;;;;7.00;7.00;;;;;;;;5057980;28;45499;-70
2022/09/25 02:37:11;;;;;;;;;6.00;6.00;;;;;;;;5058698;28;45329;-67
2022/09/25 02:39:36;;;;;;;;;5.00;5.00;;;;;;;;5058590;28;45407;-71
2022/09/25 02:42:27;;;;;;;;;6.25;6.25;;;;;;;;5058805;28;45552;-70
2022/09/25 02:45:31;;;;;;;;;8.25;8.25;;;;;;;;5027089;28;45520;-69
2022/09/25 02:48:09;;;;;;;;;8.00;7.50;;;;;;;;4976418;28;45558;-70
2022/09/25 02:50:35;;;;;;;;;7.25;7.25;;;;;;;;4976732;28;45242;-69
2022/09/25 02:53:06;;;;;;;;;7.50;7.50;;;;;;;;5021424;28;45274;-70
2022/09/25 02:55:45;;;;;;;;;11.25;11.25;;;;;;;;5039871;28;47468;-69
2022/09/25 02:58:10;;;;;;;;;9.50;9.50;;;;;;;;5057746;28;45269;-69
2022/09/25 03:00:37;;;;;;;;;9.80;9.80;;;;;;;;5058842;28;45244;-68
2022/09/25 03:03:06;;;;;;;;;9.25;9.25;;;;;;;;5059663;28;45468;-69
2022/09/25 03:05:32;;;;;;;;;13.00;13.00;;;;;;;;5040062;28;46488;-69
2022/09/25 03:10:45;;;;;;;;;10.25;10.00;;;;;;;;5058066;28;45363;-70
2022/09/25 03:13:17;;;;;;;;;8.75;8.50;;;;;;;;5062045;28;45619;-69
2022/09/25 03:15:44;;;;;;;;;10.75;10.75;;;;;;;;5077972;28;45309;-69
2022/09/25 03:18:10;;;;;;;;;9.25;9.25;;;;;;;;5077414;28;45398;-69
2022/09/25 03:20:35;;;;;;;;;8.25;8.25;;;;;;;;5077712;28;45421;-69
2022/09/25 03:23:00;;;;;;;;;7.25;7.25;;;;;;;;5059561;28;45185;-70
2022/09/25 03:25:26;;;;;;;;;11.25;11.25;;;;;;;;5077699;28;46160;-71
2022/09/25 03:27:51;;;;;;;;;9.00;9.00;;;;;;;;5077728;28;45272;-69
2022/09/25 03:30:16;;;;;;;;;10.00;10.00;;;;;;;;5070423;28;45395;-70
2022/09/25 03:32:42;;;;;;;;;9.25;9.25;;;;;;;;5078373;28;45401;-70
2022/09/25 03:35:07;;;;;;;;;9.00;9.00;;;;;;;;5055747;28;46529;-73
2022/09/25 03:37:33;;;;;;;;;9.00;9.00;;;;;;;;5055079;28;46945;-75
2022/09/25 03:39:58;;;;;;;;;9.00;9.00;;;;;;;;5075246;28;45537;-74
2022/09/25 03:42:26;;;;;;;;;12.25;12.25;;;;;;;;5055677;28;45578;-75
2022/09/25 03:44:51;;;;;;;;;9.00;9.00;;;;;;;;5065197;28;46398;-73
2022/09/25 03:47:17;;;;;;;;;13.75;12.00;;;;;;;;5077263;28;45470;-76
2022/09/25 03:49:42;;;;;;;;;11.00;10.00;;;;;;;;5077559;28;45493;-75
2022/09/25 03:52:11;;;;;;;;;11.25;11.25;;;;;;;;5077171;28;45557;-74
2022/09/25 03:54:36;;;;;;;;;10.50;10.50;;;;;;;;5057190;28;48359;-73
2022/09/25 03:57:02;;;;;;;;;10.25;10.25;;;;;;;;5074272;28;46624;-73
2022/09/25 03:59:27;;;;;;;;;10.00;10.00;;;;;;;;5039145;28;45462;-75
2022/09/25 04:01:52;;;;;;;;;12.00;9.50;;;;;;;;5063839;28;45222;-73
2022/09/25 04:04:17;;;;;;;;;8.25;8.25;;;;;;;;5057842;28;47132;-72
2022/09/25 04:06:42;;;;;;;;;11.00;11.00;;;;;;;;5076600;28;45673;-74
2022/09/25 04:09:08;;;;;;;;;9.50;9.50;;;;;;;;5076372;28;45354;-74
2022/09/25 04:11:34;;;;;;;;;8.25;8.25;;;;;;;;5075599;28;45726;-75
2022/09/25 04:14:00;;;;;;;;;8.50;8.50;;;;;;;;5054138;28;48444;-76
2022/09/25 04:16:29;;;;;;;;;9.00;9.00;;;;;;;;5076133;28;45593;-73
2022/09/25 04:18:54;;;;;;;;;8.50;8.50;;;;;;;;5075753;28;45462;-74
2022/09/25 04:21:19;;;;;;;;;10.25;10.25;;;;;;;;5076375;28;45532;-73
2022/09/25 04:26:29;;;;;;;;;13.00;13.00;;;;;;;;5076202;28;45429;-74
2022/09/25 04:28:54;;;;;;;;;9.00;9.00;;;;;;;;5076161;28;45408;-74
2022/09/25 04:31:19;;;;;;;;;10.25;10.25;;;;;;;;5057950;28;45306;-73
2022/09/25 04:33:45;;;;;;;;;9.00;9.00;;;;;;;;5055307;28;47260;-75
2022/09/25 04:36:10;;;;;;;;;12.75;12.00;;;;;;;;5075618;28;45508;-74
2022/09/25 04:38:35;;;;;;;;;10.25;10.25;;;;;;;;5076444;28;45202;-73
2022/09/25 04:41:01;;;;;;;;;11.75;11.75;;;;;;;;5075919;28;45180;-73
2022/09/25 04:43:28;;;;;;;;;11.25;11.25;;;;;;;;5076332;28;47251;-73
2022/09/25 04:45:53;;;;;;;;;16.00;16.00;;;;;;;;5075510;28;45322;-73
2022/09/25 04:48:18;;;;;;;;;14.00;14.00;;;;;;;;5075736;28;45292;-74
2022/09/25 04:50:47;;;;;;;;;14.25;14.25;;;;;;;;5076542;28;45707;-74
2022/09/25 04:53:12;;;;;;;;;15.25;14.50;;;;;;;;5062584;28;48445;-73
2022/09/25 04:55:37;;;;;;;;;13.25;13.25;;;;;;;;5076944;28;45490;-74
2022/09/25 04:58:03;;;;;;;;;16.00;16.00;;;;;;;;5074836;28;45306;-75
2022/09/25 05:00:30;;;;;;;;;14.50;14.50;;;;;;;;5057423;28;45527;-74
2022/09/25 05:02:55;;;;;;;;;11.50;10.50;;;;;;;;5074701;28;45324;-74
2022/09/25 05:05:20;;;;;;;;;16.75;16.75;;;;;;;;5074627;28;45473;-74
2022/09/25 05:07:50;;;;;;;;;17.25;16.50;;;;;;;;5075590;28;45357;-73
2022/09/25 05:10:15;;;;;;;;;12.00;12.00;;;;;;;;5057544;28;45349;-73
2022/09/25 05:12:41;;;;;;;;;13.50;13.50;;;;;;;;5075302;28;45249;-72
2022/09/25 05:15:06;;;;;;;;;14.50;14.50;;;;;;;;5056029;28;45543;-73
2022/09/25 05:17:31;;;;;;;;;19.75;17.75;;;;;;;;5074056;28;45410;-74
2022/09/25 05:19:57;;;;;;;;;14.75;14.75;;;;;;;;5075987;28;45557;-74
2022/09/25 05:22:22;;;;;;;;;14.00;14.00;;;;;;;;5075435;28;45464;-76
2022/09/25 05:24:47;;;;;;;;;13.50;13.50;;;;;;;;5074187;28;45629;-74
2022/09/25 05:27:12;;;;;;;;;13.50;13.50;;;;;;;;5074800;28;45439;-73
2022/09/25 05:29:37;;;;;;;;;16.50;16.50;;;;;;;;5075459;28;45353;-74
2022/09/25 05:32:03;;;;;;;;;15.50;15.50;;;;;;;;5074170;28;46270;-74
2022/09/25 05:34:28;;;;;;;;;12.25;12.00;;;;;;;;5051976;28;46131;-74
2022/09/25 05:36:53;;;;;;;;;16.25;16.25;;;;;;;;5055767;28;45218;-75
2022/09/25 05:39:18;;;;;;;;;10.00;10.00;;;;;;;;5070819;28;45580;-74
2022/09/25 05:41:43;;;;;;;;;15.00;15.00;;;;;;;;5074551;28;45390;-75
2022/09/25 05:44:09;;;;;;;;;15.00;15.00;;;;;;;;5074503;28;45432;-74
2022/09/25 05:46:35;;;;;;;;;15.25;15.25;;;;;;;;5074270;28;45317;-74
2022/09/25 05:49:01;;;;;;;;;15.25;15.25;;;;;;;;5075585;28;45389;-74
2022/09/25 05:51:26;;;;;;;;;14.00;14.00;;;;;;;;5073176;28;45503;-74
2022/09/25 05:53:52;;;;;;;;;15.50;14.75;;;;;;;;5075426;28;45292;-75
2022/09/25 05:56:18;;;;;;;;;12.00;11.50;;;;;;;;5074015;28;45329;-74
2022/09/25 05:58:43;;;;;;;;;13.50;13.50;;;;;;;;5074568;28;45592;-73
2022/09/25 06:01:08;;;;;;;;;15.75;15.25;;;;;;;;5074747;28;46632;-74
2022/09/25 06:03:34;;;;;;;;;14.00;13.50;;;;;;;;5073843;28;45446;-74
2022/09/25 06:06:01;;;;;;;;;11.25;11.25;;;;;;;;5073110;28;45586;-75
2022/09/25 06:08:27;;;;;;;;;12.25;12.25;;;;;;;;5073563;28;45478;-74
2022/09/25 06:10:53;;;;;;;;;12.25;12.25;;;;;;;;5072995;28;46439;-74
2022/09/25 06:13:19;;;;;;;;;11.00;11.00;;;;;;;;5074318;28;45215;-73
2022/09/25 06:15:44;;;;;;;;;12.25;12.25;;;;;;;;5073721;28;45216;-75
2022/09/25 06:18:09;;;;;;;;;12.50;12.50;;;;;;;;5075626;28;45666;-74
2022/09/25 06:20:35;;;;;;;;;11.50;11.50;;;;;;;;5052065;28;46991;-74
2022/09/25 06:23:00;;;;;;;;;10.50;10.50;;;;;;;;5074473;28;45431;-74
2022/09/25 06:25:26;;;;;;;;;10.00;10.00;;;;;;;;5054752;28;45333;-74
2022/09/25 06:27:53;;;;;;;;;14.75;12.50;;;;;;;;5074470;27;45281;-75
2022/09/25 06:30:19;;;;;;;;;10.25;8.25;;;;;;;;5069995;28;47043;-75
2022/09/25 06:32:44;;;;;;;;;10.00;10.00;;;;;;;;5073310;28;45392;-75
2022/09/25 06:35:09;;;;;;;;;10.00;10.00;;;;;;;;5054045;28;45340;-74
2022/09/25 06:37:34;;;;;;;;;13.25;13.25;;;;;;;;5074458;28;45346;-73
2022/09/25 06:40:00;;;;;;;;;11.75;11.75;;;;;;;;5071933;28;45466;-73
2022/09/25 06:42:25;;;;;;;;;8.75;8.75;;;;;;;;5072529;28;45457;-75
2022/09/25 06:44:50;;;;;;;;;11.25;11.25;;;;;;;;5072866;28;45463;-74
2022/09/25 06:47:15;;;;;;;;;9.50;8.75;;;;;;;;5072374;28;45409;-74
2022/09/25 06:49:40;;;;;;;;;10.00;10.00;;;;;;;;5072532;28;45500;-75
2022/09/25 06:52:05;;;;;;;;;8.50;8.50;;;;;;;;5055217;27;45467;-73
2022/09/25 06:54:31;;;;;;;;;10.75;10.75;;;;;;;;5054709;28;45442;-73
2022/09/25 06:56:56;;;;;;;;;10.25;10.25;;;;;;;;5074879;28;45421;-74
2022/09/25 06:59:21;;;;;;;;;9.50;9.50;;;;;;;;5072678;28;46557;-74
2022/09/25 07:01:47;;;;;;;;;7.25;7.25;;;;;;;;5072817;28;45429;-74
2022/09/25 07:04:12;;;;;;;;;11.50;11.50;;;;;;;;5073987;28;45413;-73
2022/09/25 07:06:37;;;;;;;;;10.25;10.25;;;;;;;;5073952;28;45455;-73
2022/09/25 07:09:03;;;;;;;;;9.00;9.00;;;;;;;;5074973;28;46042;-74
2022/09/25 07:11:28;;;;;;;;;11.00;11.00;;;;;;;;5072422;28;45366;-75
2022/09/25 07:13:56;;;;;;;;;8.75;8.75;;;;;;;;5075296;28;45484;-74
2022/09/25 07:16:28;;;;;;;;;8.00;8.00;;;;;;;;5070710;28;45613;-74
2022/09/25 07:18:56;;;;;;;;;9.00;9.00;;;;;;;;5071012;28;45496;-73
2022/09/25 07:21:23;;;;;;;;;7.00;7.00;;;;;;;;5077456;28;45454;-73
2022/09/25 07:23:49;;;;;;;;;9.00;9.00;;;;;;;;5075664;28;45988;-74
2022/09/25 07:26:15;;;;;;;;;8.00;8.00;;;;;;;;5075981;28;45342;-74
2022/09/25 07:28:41;;;;;;;;;8.00;8.00;;;;;;;;5075248;28;46560;-74
2022/09/25 07:31:09;;;;;;;;;7.00;7.00;;;;;;;;5075521;28;45378;-75
2022/09/25 07:33:35;;;;;;;;;7.00;7.00;;;;;;;;5075078;28;45205;-74
2022/09/25 07:36:00;;;;;;;;;7.25;7.25;;;;;;;;5079242;28;45564;-74
2022/09/25 07:38:26;;;;;;;;;7.00;7.00;;;;;;;;5079014;28;45704;-74
2022/09/25 07:40:51;;;;;;;;;9.00;7.25;;;;;;;;5074012;28;45705;-74
2022/09/25 07:43:17;;;;;;;;;5.75;5.75;;;;;;;;5076703;27;45394;-75
2022/09/25 07:45:48;;;;;;;;;7.50;7.50;;;;;;;;5077999;28;45404;-73
2022/09/25 07:48:13;;;;;;;;;7.00;7.00;;;;;;;;5049170;28;45384;-75
2022/09/25 07:50:38;;;;;;;;;6.25;6.25;;;;;;;;5068982;28;45550;-78
2022/09/25 07:53:04;;;;;;;;;7.00;7.00;;;;;;;;5076837;28;45219;-77
2022/09/25 07:55:29;;;;;;;;;8.25;8.25;;;;;;;;5073769;28;45542;-76
2022/09/25 07:57:57;;;;;;;;;6.00;6.00;;;;;;;;5078181;28;46085;-75
2022/09/25 08:00:22;;;;;;;;;6.75;6.75;;;;;;;;5075563;28;45434;-74
2022/09/25 08:02:57;;;;;;;;;7.00;6.50;;;;;;;;5077578;28;45466;-74
2022/09/25 08:05:23;;;;;;;;;7.00;7.00;;;;;;;;5077743;28;45553;-74
2022/09/25 08:07:48;;;;;;;;;5.25;5.25;;;;;;;;5075866;28;45397;-75
2022/09/25 08:10:13;;;;;;;;;6.75;6.75;;;;;;;;5076217;28;45676;-74
2022/09/25 08:12:39;;;;;;;;;5.50;5.50;;;;;;;;5058891;28;45434;-75
2022/09/25 08:15:05;;;;;;;;;4.75;4.75;;;;;;;;5058905;28;45369;-73
2022/09/25 08:17:30;;;;;;;;;5.00;5.00;;;;;;;;5075608;28;46858;-73
2022/09/25 08:19:56;;;;;;;;;6.00;6.00;;;;;;;;5076170;28;45303;-73
2022/09/25 08:22:21;;;;;;;;;6.75;6.75;;;;;;;;5075420;28;45414;-75
2022/09/25 08:24:47;;;;;;;;;4.00;4.00;;;;;;;;5058075;28;46411;-74
2022/09/25 08:27:12;;;;;;;;;5.25;5.25;;;;;;;;5075876;28;45613;-75
2022/09/25 08:29:37;;;;;;;;;5.00;5.00;;;;;;;;5075798;28;45493;-75
2022/09/25 08:32:03;;;;;;;;;4.25;4.25;;;;;;;;5077398;28;45340;-74
2022/09/25 08:34:28;;;;;;;;;2.00;2.00;;;;;;;;5079788;28;45331;-75
2022/09/25 08:36:53;;;;;;;;;3.25;3.25;;;;;;;;5064834;28;46188;-74
2022/09/25 08:39:19;;;;;;;;;4.25;4.25;;;;;;;;5077738;28;45174;-74
2022/09/25 08:41:44;;;;;;;;;3.75;3.75;;;;;;;;5056793;28;45412;-73
2022/09/25 08:44:22;;;;;;;;;5.00;5.00;;;;;;;;5076948;28;45574;-75
2022/09/25 08:49:52;;;;;;;;;5.50;5.50;;;;;;;;5057281;28;45485;-72
2022/09/25 08:52:20;;;;;;;;;2.75;2.75;;;;;;;;5075368;28;45334;-73
2022/09/25 08:54:45;;;;;;;;;4.00;4.00;;;;;;;;5058088;28;45386;-74
2022/09/25 08:57:13;;;;;;;;;3.00;3.00;;;;;;;;5075553;28;45396;-75
2022/09/25 08:59:43;;;;;;;;;3.00;3.00;;;;;;;;5074514;28;45292;-75
2022/09/25 09:02:11;;;;;;;;;4.00;4.00;;;;;;;;5076518;28;45276;-75
2022/09/25 09:04:56;;;;;;;;;2.00;2.00;;;;;;;;5076880;28;45326;-75
2022/09/25 09:07:25;;;;;;;;;1.75;1.75;;;;;;;;5076068;28;46475;-78
2022/09/25 09:10:02;;;;;;;;;2.00;2.00;;;;;;;;5076122;28;45232;-76
2022/09/25 09:12:31;;;;;;;;;1.00;1.00;;;;;;;;5091296;27;45316;-76
2022/09/25 09:15:09;;;;;;;;;3.00;3.00;;;;;;;;5077231;27;45370;-76
2022/09/25 09:17:40;;;;;;;;;2.00;2.00;;;;;;;;5057597;28;45418;-76
2022/09/25 09:20:16;;;;;;;;;4.00;4.00;;;;;;;;5075906;27;45694;-76
2022/09/25 09:22:45;;;;;;;;;2.50;2.50;;;;;;;;5075798;28;45248;-77
2022/09/25 09:25:28;;;;;;;;;2.50;2.50;;;;;;;;5075803;28;45250;-76
2022/09/25 09:28:12;;;;;;;;;2.25;2.25;;;;;;;;5075434;28;45717;-76
2022/09/25 09:30:56;;;;;;;;;4.00;4.00;;;;;;;;5057371;28;45478;-76
2022/09/25 09:33:40;;;;;;;;;2.75;2.75;;;;;;;;5056222;28;45390;-76
2022/09/25 09:36:05;;;;;;;;;2.00;2.00;;;;;;;;5044233;28;45561;-79
2022/09/25 09:38:49;;;;;;;;;1.00;1.00;;;;;;;;5059117;28;46924;-77
2022/09/25 09:41:24;;;;;;;;;2.00;2.00;;;;;;;;5079100;28;45344;-77
2022/09/25 09:43:53;;;;;;;;;1.00;1.00;;;;;;;;5059375;28;45343;-78
2022/09/25 09:46:18;;;;;;;;;1.75;1.50;;;;;;;;5078412;28;45613;-78
2022/09/25 09:49:02;;;;;;;;;1.00;1.00;;;;;;;;5078381;28;46167;-77
2022/09/25 09:51:47;;;;;;;;;1.50;1.50;;;;;;;;5072992;27;46063;-76
2022/09/25 09:54:16;;;;;;;;;8.00;8.00;;;;;;;;5062739;28;45311;-78
2022/09/25 09:56:47;;;;;;;;;1.00;1.00;;;;;;;;5082558;27;45249;-77
2022/09/25 09:59:23;;;;;;;;;1.50;1.25;;;;;;;;5092987;27;45591;-76
2022/09/25 10:02:12;;;;;;;;;1.00;1.00;;;;;;;;5079852;27;45220;-76
2022/09/25 10:04:38;;;;;;;;;2.00;2.00;;;;;;;;5054947;27;45343;-77
2022/09/25 10:07:15;;;;;;;;;2.50;2.50;;;;;;;;5074507;27;45212;-74
2022/09/25 10:09:41;;;;;;;;;2.00;2.00;;;;;;;;5072953;27;45816;-76
2022/09/25 10:12:13;;;;;;;;;4.00;4.00;;;;;;;;5070874;27;45323;-79
2022/09/25 10:14:41;;;;;;;;;2.00;2.00;;;;;;;;5072244;27;45496;-79
2022/09/25 10:17:10;;;;;;;;;2.00;2.00;;;;;;;;5072898;27;45619;-75
2022/09/25 10:19:56;;;;;;;;;1.00;1.00;;;;;;;;5056670;28;48282;-73
2022/09/25 10:22:25;;;;;;;;;8.00;8.00;;;;;;;;5075957;28;45406;-72
2022/09/25 10:24:57;;;;;;;;;1.50;1.50;;;;;;;;5076003;28;45311;-75
2022/09/25 10:27:27;;;;;;;;;6.75;6.75;;;;;;;;5058790;28;45416;-73
2022/09/25 10:30:04;;;;;;;;;1.00;1.00;;;;;;;;5057177;28;45369;-76
2022/09/25 10:32:32;;;;;;;;;4.75;4.75;;;;;;;;5054612;28;45295;-72
2022/09/25 10:34:58;;;;;;;;;4.25;3.00;;;;;;;;5037358;28;45417;-75
2022/09/25 10:37:29;;;;;;;;;3.50;3.50;;;;;;;;5056009;28;45400;-75
2022/09/25 10:40:05;;;;;;;;;6.00;6.00;;;;;;;;5056244;28;45482;-75
2022/09/25 10:42:31;;;;;;;;;4.00;4.00;;;;;;;;5059949;28;46087;-74
2022/09/25 10:44:56;;;;;;;;;1.00;1.00;;;;;;;;5079838;28;45323;-72
2022/09/25 10:50:13;;;;;;;;;4.00;4.00;;;;;;;;5075671;28;45778;-71
2022/09/25 10:52:51;;;;;;;;;6.75;6.75;;;;;;;;5074941;28;45247;-75
2022/09/25 10:55:30;;;;;;;;;2.00;2.00;;;;;;;;5076790;28;45221;-77
2022/09/25 10:58:17;;;;;;;;;0.00;0.00;;;;;;;;5081542;28;45279;-77
2022/09/25 11:00:53;;;;;;;;;6.25;6.25;;;;;;;;5078979;27;46419;-72
2022/09/25 11:03:24;;;;;;;;;3.00;3.00;;;;;;;;5079135;27;45777;-75
2022/09/25 11:05:54;;;;;;;;;7.00;7.00;;;;;;;;5063898;28;45435;-75
2022/09/25 11:08:22;;;;;;;;;1.25;1.25;;;;;;;;5057340;28;45481;-75
2022/09/25 11:10:51;;;;;;;;;2.50;2.50;;;;;;;;5057011;28;45541;-78
2022/09/25 11:13:19;;;;;;;;;0.00;0.00;;;;;;;;5057100;28;45385;-77
2022/09/25 11:15:47;;;;;;;;;4.50;4.50;;;;;;;;5072587;28;45272;-74
2022/09/25 11:18:32;;;;;;;;;2.00;2.00;;;;;;;;5077378;28;45238;-76
2022/09/25 11:21:02;;;;;;;;;1.50;1.50;;;;;;;;5059430;28;46049;-74
2022/09/25 11:23:42;;;;;;;;;1.00;1.00;;;;;;;;5077541;28;45362;-75
2022/09/25 11:26:17;;;;;;;;;0.00;0.00;;;;;;;;5077668;28;45438;-76
2022/09/25 11:28:51;;;;;;;;;1.25;1.25;;;;;;;;5077261;28;45573;-76
2022/09/25 11:31:37;;;;;;;;;1.25;1.25;;;;;;;;5077592;28;45482;-76
2022/09/25 11:34:16;;;;;;;;;2.00;2.00;;;;;;;;5077715;28;45446;-79
2022/09/25 11:36:49;;;;;;;;;0.00;0.00;;;;;;;;5077569;28;45413;-76
2022/09/25 11:42:17;;;;;;;;;1.25;1.25;;;;;;;;5056223;28;45772;-75
2022/09/25 11:44:53;;;;;;;;;1.50;1.50;;;;;;;;5056141;28;45294;-76
2022/09/25 11:47:30;;;;;;;;;3.00;3.00;;;;;;;;5073435;28;45271;-75
2022/09/25 11:49:57;;;;;;;;;2.00;2.00;;;;;;;;5077423;28;45863;-73
2022/09/25 11:52:29;;;;;;;;;2.00;2.00;;;;;;;;5059214;28;46445;-73
2022/09/25 11:55:20;;;;;;;;;0.25;0.25;;;;;;;;5077306;27;45490;-71
2022/09/25 11:58:04;;;;;;;;;0.75;0.75;;;;;;;;5074572;27;45517;-74
2022/09/25 12:00:52;;;;;;;;;1.50;1.50;;;;;;;;5058538;28;45379;-76
2022/09/25 12:03:17;;;;;;;;;1.25;1.25;;;;;;;;5058236;28;47102;-74
2022/09/25 12:05:44;;;;;;;;;4.75;3.00;;;;;;;;5057399;28;45252;-72
2022/09/25 12:08:25;;;;;;;;;2.00;2.00;;;;;;;;5058733;28;45376;-75
2022/09/25 12:10:53;;;;;;;;;4.75;4.75;;;;;;;;5076828;28;45494;-72
2022/09/25 12:13:19;;;;;;;;;0.75;0.75;;;;;;;;5076639;28;46093;-75
2022/09/25 12:15:55;;;;;;;;;0.50;0.50;;;;;;;;5076940;28;45473;-77
2022/09/25 12:18:23;;;;;;;;;1.00;1.00;;;;;;;;5058788;28;45414;-74
2022/09/25 12:20:48;;;;;;;;;0.00;0.00;;;;;;;;5056233;28;45304;-73
2022/09/25 12:23:14;;;;;;;;;1.75;1.75;;;;;;;;5075925;28;46388;-78
2022/09/25 12:25:43;;;;;;;;;0.00;0.00;;;;;;;;5076552;27;45307;-76
2022/09/25 12:28:15;;;;;;;;;0.00;0.00;;;;;;;;5076196;28;45391;-74
2022/09/25 12:30:58;;;;;;;;;0.00;0.00;;;;;;;;5061769;28;45541;-74
2022/09/25 12:33:33;;;;;;;;;2.00;2.00;;;;;;;;5076040;28;46648;-71
2022/09/25 12:36:07;;;;;;;;;37.25;33.75;;;;;;;;5074672;27;45381;-75
2022/09/25 12:38:36;;;;;;;;;2.25;2.25;;;;;;;;5079756;27;45809;-76
2022/09/25 12:41:07;;;;;;;;;0.00;0.00;;;;;;;;5079226;27;45426;-75
2022/09/25 12:43:40;;;;;;;;;0.00;0.00;;;;;;;;5076344;28;45869;-77
2022/09/25 12:46:14;;;;;;;;;0.00;0.00;;;;;;;;5075328;28;45379;-74
2022/09/25 12:48:51;;;;;;;;;0.00;0.00;;;;;;;;5055715;28;45546;-76
2022/09/25 12:51:23;;;;;;;;;8.25;8.25;;;;;;;;5057528;28;45417;-73
2022/09/25 12:53:53;;;;;;;;;0.00;0.00;;;;;;;;5073833;27;45975;-73
2022/09/25 12:56:23;;;;;;;;;2.00;1.50;;;;;;;;5051129;28;45265;-71
2022/09/25 12:58:58;;;;;;;;;1.25;1.25;;;;;;;;5078286;27;45451;-74
2022/09/25 13:01:27;;;;;;;;;2.00;2.00;;;;;;;;5075107;27;45394;-74
2022/09/25 13:04:04;;;;;;;;;0.00;0.00;;;;;;;;5072485;27;46173;-72
2022/09/25 13:06:41;;;;;;;;;0.00;0.00;;;;;;;;5074336;27;46332;-74
2022/09/25 13:09:13;;;;;;;;;10.00;10.00;;;;;;;;5074379;27;45286;-78
2022/09/25 13:11:44;;;;;;;;;6.75;6.75;;;;;;;;5077478;28;45527;-73
2022/09/25 13:14:15;;;;;;;;;3.00;3.00;;;;;;;;5076054;28;46370;-75
2022/09/25 13:16:44;;;;;;;;;1.75;1.75;;;;;;;;5075391;27;45251;-79
2022/09/25 13:19:24;;;;;;;;;4.00;4.00;;;;;;;;5074834;27;45517;-77
2022/09/25 13:21:49;;;;;;;;;6.00;6.00;;;;;;;;5056227;28;45969;-78
2022/09/25 13:24:16;;;;;;;;;0.00;0.00;;;;;;;;5052561;28;46966;-76
2022/09/25 13:26:44;;;;;;;;;2.00;2.00;;;;;;;;5071533;27;45434;-77
2022/09/25 13:29:23;;;;;;;;;0.00;0.00;;;;;;;;5074804;27;45512;-77
2022/09/25 13:31:50;;;;;;;;;0.00;0.00;;;;;;;;5074581;27;45696;-76
2022/09/25 13:34:17;;;;;;;;;0.00;0.00;;;;;;;;5075472;28;46282;-77
2022/09/25 13:36:46;;;;;;;;;0.00;0.00;;;;;;;;5072818;27;45183;-77
2022/09/25 13:42:11;;;;;;;;;0.00;0.00;;;;;;;;5073360;28;45502;-75
2022/09/25 13:44:38;;;;;;;;;0.50;0.50;;;;;;;;5074002;28;46149;-72
2022/09/25 13:47:16;;;;;;;;;2.00;2.00;;;;;;;;5073719;28;45436;-72
2022/09/25 13:49:49;;;;;;;;;0.00;0.00;;;;;;;;5073466;28;45287;-71
2022/09/25 13:52:30;;;;;;;;;0.00;0.00;;;;;;;;5075070;28;45491;-72
2022/09/25 13:55:19;;;;;;;;;0.00;0.00;;;;;;;;5074961;28;46427;-71
2022/09/25 13:57:53;;;;;;;;;0.00;0.00;;;;;;;;5074867;28;45473;-72
2022/09/25 14:00:18;;;;;;;;;0.25;0.25;;;;;;;;5056428;28;45322;-72
2022/09/25 14:02:45;;;;;;;;;0.00;0.00;;;;;;;;5075004;28;45472;-72
2022/09/25 14:05:14;;;;;;;;;0.00;0.00;;;;;;;;5074351;28;45599;-73
2022/09/25 14:07:40;;;;;;;;;0.00;0.00;;;;;;;;5056240;28;45458;-73
2022/09/25 14:10:09;;;;;;;;;5.25;5.25;;;;;;;;5056179;28;45384;-72
2022/09/25 14:12:41;;;;;;;;;0.00;0.00;;;;;;;;5055937;28;45382;-73
2022/09/25 14:15:21;;;;;;;;;0.00;0.00;;;;;;;;5074089;28;45346;-72
2022/09/25 14:17:49;;;;;;;;;6.00;6.00;;;;;;;;5074057;28;45507;-71
2022/09/25 14:20:35;;;;;;;;;0.00;0.00;;;;;;;;5074393;28;45306;-73
2022/09/25 14:23:04;;;;;;;;;0.00;0.00;;;;;;;;5055952;28;45394;-74
2022/09/25 14:25:35;;;;;;;;;0.00;0.00;;;;;;;;5074649;28;46722;-72
2022/09/25 14:28:01;;;;;;;;;0.00;0.00;;;;;;;;5074647;28;45462;-73
2022/09/25 14:30:29;;;;;;;;;1.00;1.00;;;;;;;;5078103;28;45537;-73
2022/09/25 14:33:02;;;;;;;;;0.00;0.00;;;;;;;;5059424;28;45621;-72
2022/09/25 14:35:34;;;;;;;;;1.00;1.00;;;;;;;;5077614;28;46265;-73
2022/09/25 14:38:15;;;;;;;;;2.25;2.25;;;;;;;;5077540;28;45415;-72
2022/09/25 14:41:00;;;;;;;;;0.00;0.00;;;;;;;;5077878;28;45343;-73
2022/09/25 14:43:40;;;;;;;;;0.00;0.00;;;;;;;;5077536;28;45462;-73
2022/09/25 14:46:17;;;;;;;;;0.00;0.00;;;;;;;;5077094;28;45310;-72
2022/09/25 14:48:47;;;;;;;;;0.25;0.25;;;;;;;;5066188;28;45383;-72
2022/09/25 14:51:14;;;;;;;;;0.00;0.00;;;;;;;;5038646;28;45536;-73
2022/09/25 14:53:45;;;;;;;;;0.00;0.00;;;;;;;;5057018;28;45439;-72
2022/09/25 14:56:13;;;;;;;;;2.75;2.75;;;;;;;;5067067;28;46348;-73
2022/09/25 14:58:48;;;;;;;;;2.00;2.00;;;;;;;;5077513;28;45427;-73
2022/09/25 15:01:17;;;;;;;;;5.25;5.25;;;;;;;;5077424;28;45337;-72
2022/09/25 15:03:45;;;;;;;;;1.75;1.75;;;;;;;;5077726;28;45215;-75
2022/09/25 15:06:11;;;;;;;;;0.50;0.50;;;;;;;;5076942;28;46392;-74
2022/09/25 15:08:37;;;;;;;;;1.50;1.50;;;;;;;;5076943;28;45510;-72
2022/09/25 15:11:09;;;;;;;;;0.50;0.50;;;;;;;;5077612;28;45358;-73
2022/09/25 15:13:34;;;;;;;;;0.00;0.00;;;;;;;;5059036;28;45445;-72